Time;durP1;ratioP1;P1;durP2;ratioP2;P2;SDS_P1;SDS_P2;PMS_P1;PMS_P2;Temp;Humidity;BMP_temperature;BMP_pressure;BME280_temperature;BME280_humidity;BME280_pressure;Samples;Min_cycle;Max_cycle;Signal;HPM_P1;HPM_P2
2022/11/28 00:01:32;;;;;;;24.13;17.30;;;3.30;91.10;;;3.22;81.18;98095.91;5029100;28;20464;-69
2022/11/28 00:04:00;;;;;;;26.23;17.80;;;3.20;91.60;;;3.14;81.57;98087.91;5026352;28;20453;-71
2022/11/28 00:06:28;;;;;;;30.30;17.10;;;3.30;91.40;;;3.07;81.31;98088.53;5027098;28;20456;-70
2022/11/28 00:08:59;;;;;;;27.30;18.10;;;3.20;91.40;;;2.98;81.50;98085.03;5020628;28;20470;-69
2022/11/28 00:11:26;;;;;;;27.30;18.07;;;3.20;91.20;;;3.14;81.35;98085.22;5029495;28;20536;-69
2022/11/28 00:13:55;;;;;;;30.03;18.20;;;3.30;91.20;;;3.08;81.12;98084.88;5044362;28;20461;-69
2022/11/28 00:16:23;;;;;;;27.53;18.40;;;3.30;91.10;;;3.18;80.99;98082.03;5027937;28;20456;-69
2022/11/28 00:18:54;;;;;;;29.03;18.80;;;3.20;91.30;;;3.31;81.15;98094.06;5029413;28;20474;-70
2022/11/28 00:21:22;;;;;;;26.70;18.80;;;3.30;91.50;;;3.32;80.42;98091.22;5015278;28;20989;-70
2022/11/28 00:23:50;;;;;;;33.50;19.90;;;3.40;91.10;;;3.20;80.42;98055.19;5018966;28;20456;-70
2022/11/28 00:26:21;;;;;;;29.07;19.97;;;3.30;90.90;;;3.28;80.89;98068.53;5027748;28;20962;-69
2022/11/28 00:28:49;;;;;;;36.17;20.40;;;3.30;91.20;;;2.91;81.82;98068.03;5030075;28;20450;-69
2022/11/28 00:31:19;;;;;;;26.60;17.83;;;3.30;90.60;;;2.95;82.37;98065.84;5028689;28;20470;-70
2022/11/28 00:33:46;;;;;;;30.90;20.13;;;3.20;91.10;;;3.01;82.17;98059.00;5029695;28;20469;-70
2022/11/28 00:36:16;;;;;;;30.07;19.20;;;3.20;91.40;;;2.87;82.32;98065.84;5028017;28;20456;-69
2022/11/28 00:38:43;;;;;;;29.33;19.47;;;3.20;91.70;;;2.66;82.01;98027.13;5013121;28;20970;-69
2022/11/28 00:41:13;;;;;;;34.27;20.07;;;3.20;91.80;;;2.82;82.58;98045.84;5023810;28;20508;-68
2022/11/28 00:43:42;;;;;;;28.00;17.40;;;3.20;91.50;;;2.80;82.94;98041.66;5025653;28;20484;-69
2022/11/28 00:46:10;;;;;;;30.97;19.70;;;3.20;91.70;;;2.87;82.33;98047.16;5016197;28;20937;-68
2022/11/28 00:48:37;;;;;;;26.07;17.03;;;3.20;91.60;;;2.78;82.96;98036.47;5018829;28;20486;-70
2022/11/28 00:51:12;;;;;;;27.17;18.90;;;3.10;92.10;;;2.90;82.29;98030.81;5024514;28;20461;-69
2022/11/28 00:53:42;;;;;;;29.53;19.00;;;3.10;92.10;;;2.35;83.08;97961.88;5013814;28;20458;-70
2022/11/28 00:56:12;;;;;;;30.37;18.30;;;3.10;92.50;;;2.70;83.29;98023.13;5043722;28;20460;-69
2022/11/28 00:58:40;;;;;;;27.33;17.57;;;3.10;92.40;;;2.62;83.62;98021.28;5025150;28;20472;-71
2022/11/28 01:01:09;;;;;;;29.40;19.80;;;3.00;92.50;;;2.87;83.07;98010.63;5019182;28;20920;-68
2022/11/28 01:03:37;;;;;;;29.10;17.97;;;3.00;93.30;;;2.82;83.67;98011.13;5022354;28;20925;-69
2022/11/28 01:06:05;;;;;;;26.30;17.30;;;2.90;93.40;;;2.88;83.11;98006.97;5034962;28;20508;-68
2022/11/28 01:08:32;;;;;;;30.57;20.10;;;3.00;93.60;;;2.87;83.27;98020.47;5028874;28;20946;-68
2022/11/28 01:11:02;;;;;;;28.33;19.20;;;3.00;93.40;;;2.83;83.49;98007.47;5024631;28;20511;-70
2022/11/28 01:13:29;;;;;;;30.70;19.73;;;3.00;93.30;;;2.89;82.87;98013.97;5027525;28;20663;-68
2022/11/28 01:15:57;;;;;;;28.40;18.80;;;3.00;93.20;;;3.07;82.26;98003.09;5027222;28;20925;-69
2022/11/28 01:18:24;;;;;;;27.17;17.97;;;3.00;93.90;;;3.08;82.32;98012.78;5020785;28;20484;-68
2022/11/28 01:20:51;;;;;;;31.47;20.00;;;3.10;93.20;;;3.05;82.21;98007.78;5025677;28;20442;-68
2022/11/28 01:23:19;;;;;;;29.10;19.63;;;3.00;92.90;;;3.22;81.52;98021.13;5022160;28;20527;-68
2022/11/28 01:25:46;;;;;;;33.33;20.10;;;3.10;93.60;;;3.23;82.11;98006.78;5031009;28;20552;-70
2022/11/28 01:28:14;;;;;;;26.23;17.33;;;3.10;92.90;;;3.18;82.03;98009.13;5031922;28;20461;-70
2022/11/28 01:30:42;;;;;;;29.00;19.70;;;3.20;92.80;;;3.13;81.78;97995.47;5048456;28;20457;-70
2022/11/28 01:33:09;;;;;;;25.73;17.20;;;3.20;92.70;;;2.89;83.29;97995.28;5030706;28;20488;-70
2022/11/28 01:35:36;;;;;;;29.23;18.90;;;3.10;92.60;;;2.81;83.86;97984.59;5029854;28;20805;-69
2022/11/28 01:38:03;;;;;;;30.03;19.67;;;3.10;92.90;;;2.81;83.44;97980.13;5030009;28;21023;-69
2022/11/28 01:40:30;;;;;;;31.77;19.23;;;3.10;92.80;;;3.02;83.11;97973.44;5030066;28;20460;-71
2022/11/28 01:42:58;;;;;;;31.17;19.00;;;3.10;93.60;;;2.90;83.11;97967.59;5021015;28;20461;-71
2022/11/28 01:45:31;;;;;;;29.63;19.03;;;3.10;93.10;;;2.68;84.53;97966.44;5026820;28;20501;-70
2022/11/28 01:48:03;;;;;;;30.57;18.30;;;3.10;93.70;;;2.81;84.25;97966.78;5025394;28;20581;-69
2022/11/28 01:50:32;;;;;;;28.40;18.30;;;3.10;93.50;;;2.75;84.35;97962.09;5026074;28;20515;-69
2022/11/28 01:53:05;;;;;;;29.97;18.83;;;3.10;92.90;;;2.89;83.53;97957.09;5022658;28;20473;-68
2022/11/28 01:55:40;;;;;;;27.90;17.53;;;3.10;93.60;;;3.11;82.60;97964.41;5045652;28;20868;-70
2022/11/28 01:58:08;;;;;;;29.50;19.40;;;3.20;93.40;;;2.84;83.39;97954.91;5020188;28;20478;-70
2022/11/28 02:00:37;;;;;;;28.60;18.63;;;3.20;92.70;;;2.75;84.53;97951.41;5024453;28;20465;-69
2022/11/28 02:03:10;;;;;;;28.70;18.17;;;3.10;93.30;;;2.63;84.78;97950.06;5022605;28;20881;-69
2022/11/28 02:05:38;;;;;;;32.57;18.70;;;3.10;93.30;;;2.88;84.19;97950.09;5027724;28;20514;-71
2022/11/28 02:08:06;;;;;;;25.77;17.80;;;3.10;93.50;;;2.88;84.01;97936.75;5031389;28;20806;-70
2022/11/28 02:10:47;;;;;;;27.57;16.77;;;3.10;93.70;;;2.94;84.17;97931.56;5029811;28;20518;-67
2022/11/28 02:13:31;;;;;;;26.67;17.73;;;3.20;93.40;;;2.85;84.39;97934.41;5040315;28;20487;-69
2022/11/28 02:16:15;;;;;;;24.73;16.00;;;3.20;93.60;;;2.71;84.97;97934.09;5030496;28;20476;-69
2022/11/28 02:18:58;;;;;;;27.80;17.17;;;3.10;93.50;;;2.81;84.99;97934.75;5029061;28;20483;-69
2022/11/28 02:21:50;;;;;;;29.80;18.93;;;3.10;94.00;;;2.89;84.31;97943.75;5027498;28;20492;-69
2022/11/28 02:24:56;;;;;;;27.00;17.60;;;3.20;94.00;;;2.98;84.10;97951.56;5026349;28;20457;-68
2022/11/28 02:28:00;;;;;;;25.93;16.30;;;3.20;93.70;;;2.89;84.42;97946.41;5043756;28;21156;-69
2022/11/28 02:30:33;;;;;;;26.87;17.60;;;3.20;93.80;;;2.87;84.65;97945.75;5004559;28;21026;-68
2022/11/28 02:33:12;;;;;;;24.50;17.30;;;3.20;93.70;;;2.86;85.09;97941.41;5027340;28;20839;-68
2022/11/28 02:35:52;;;;;;;26.97;17.47;;;3.10;94.20;;;2.94;84.45;97938.72;5020062;28;20469;-69
2022/11/28 02:38:34;;;;;;;27.90;17.90;;;3.20;94.10;;;2.85;85.26;97929.06;5020833;28;20518;-69
2022/11/28 02:41:06;;;;;;;25.40;16.00;;;3.20;94.10;;;2.80;85.16;97925.06;5011989;28;20446;-70
2022/11/28 02:43:44;;;;;;;28.60;17.47;;;3.20;94.30;;;2.40;85.38;97846.72;5029835;28;20450;-66
2022/11/28 02:46:16;;;;;;;25.23;17.73;;;3.20;94.10;;;2.79;85.75;97918.03;5029731;28;20510;-69
2022/11/28 02:48:50;;;;;;;28.03;17.87;;;3.20;94.40;;;2.87;85.74;97905.72;5027485;28;20464;-68
2022/11/28 02:51:25;;;;;;;27.07;18.00;;;3.20;94.40;;;2.82;85.23;97896.38;5031313;28;20872;-70
2022/11/28 02:53:55;;;;;;;24.93;15.47;;;3.20;94.30;;;2.86;85.38;97874.69;5031187;28;20457;-69
2022/11/28 02:56:24;;;;;;;26.23;16.60;;;3.30;94.50;;;2.74;85.38;97856.34;5045390;28;20460;-68
2022/11/28 02:58:51;;;;;;;24.77;16.90;;;3.20;94.10;;;2.62;85.63;97844.38;5029087;28;20492;-68
2022/11/28 03:01:23;;;;;;;23.33;15.17;;;3.20;94.10;;;2.68;85.92;97830.38;5030499;28;20547;-70
2022/11/28 03:04:08;;;;;;;25.10;14.60;;;3.20;94.30;;;2.58;86.51;97835.03;5032490;28;20457;-69
2022/11/28 03:06:51;;;;;;;25.23;16.63;;;3.20;94.20;;;2.82;85.29;97828.81;5023955;28;20488;-71
2022/11/28 03:09:38;;;;;;;26.97;16.20;;;3.20;94.40;;;3.04;84.42;97847.81;5013710;28;20520;-69
2022/11/28 03:12:21;;;;;;;25.83;16.60;;;3.30;94.30;;;3.02;84.13;97842.63;5011586;28;20477;-69
2022/11/28 03:14:54;;;;;;;29.57;18.33;;;3.30;93.40;;;2.92;84.50;97829.47;5009343;28;20450;-69
2022/11/28 03:17:41;;;;;;;26.70;14.97;;;3.30;93.10;;;3.09;83.74;97840.91;5027909;28;20469;-70
2022/11/28 03:20:21;;;;;;;26.07;16.70;;;3.40;93.30;;;2.95;84.54;97825.63;5023536;28;20452;-67
2022/11/28 03:23:01;;;;;;;26.20;16.37;;;3.30;93.20;;;2.90;84.94;97831.50;5030409;28;20437;-69
2022/11/28 03:25:36;;;;;;;27.37;14.80;;;3.30;92.70;;;3.15;83.41;97834.06;5028419;28;20457;-68
2022/11/28 03:28:09;;;;;;;30.73;15.70;;;3.40;92.50;;;3.11;82.39;97830.94;5028880;28;20441;-69
2022/11/28 03:30:42;;;;;;;24.20;16.10;;;3.40;91.90;;;3.15;83.05;97822.56;5026846;28;20466;-67
2022/11/28 03:33:10;;;;;;;22.73;15.30;;;3.40;92.30;;;3.18;83.33;97822.22;5044435;28;20676;-69
2022/11/28 03:35:42;;;;;;;27.53;17.30;;;3.40;92.60;;;3.23;83.06;97812.69;5041294;28;20462;-69
2022/11/28 03:38:16;;;;;;;27.17;18.23;;;3.50;92.30;;;3.17;82.35;97793.84;5027188;28;20518;-69
2022/11/28 03:40:50;;;;;;;27.70;17.00;;;3.50;91.90;;;3.08;83.42;97787.72;5024262;28;21115;-69
2022/11/28 03:43:22;;;;;;;29.80;17.47;;;3.50;91.80;;;3.11;82.93;97784.69;5037160;28;20841;-68
2022/11/28 03:45:55;;;;;;;23.67;16.67;;;3.50;91.90;;;3.11;83.01;97779.34;5027970;28;20454;-68
2022/11/28 03:48:28;;;;;;;23.83;15.70;;;3.50;91.50;;;3.23;82.20;97772.63;5019677;28;20890;-68
2022/11/28 03:51:05;;;;;;;24.50;16.73;;;3.50;91.70;;;3.43;82.12;97779.38;5024663;28;20462;-70
2022/11/28 03:53:45;;;;;;;24.87;15.93;;;3.50;91.60;;;3.50;81.00;97796.38;5041642;28;20957;-70
2022/11/28 03:56:17;;;;;;;23.03;15.10;;;3.60;91.20;;;3.51;80.75;97806.88;5028307;28;20942;-70
2022/11/28 03:58:54;;;;;;;23.57;15.30;;;3.60;91.30;;;3.65;80.54;97818.66;5022324;28;20471;-70
2022/11/28 04:01:29;;;;;;;26.73;14.67;;;3.60;91.00;;;3.43;81.37;97819.44;5026346;28;20446;-70
2022/11/28 04:04:11;;;;;;;20.50;15.63;;;3.60;90.70;;;3.44;80.63;97803.22;5032052;28;20983;-69
2022/11/28 04:06:53;;;;;;;23.90;15.00;;;3.60;90.50;;;3.10;80.95;97767.03;5013074;28;21039;-70
2022/11/28 04:09:33;;;;;;;23.93;15.73;;;3.70;90.10;;;3.46;81.06;97805.75;5029611;28;20501;-69
2022/11/28 04:12:09;;;;;;;19.73;13.87;;;3.60;90.30;;;3.44;81.66;97803.22;5022503;28;20465;-68
2022/11/28 04:14:45;;;;;;;18.37;12.53;;;3.60;90.40;;;3.65;80.25;97797.28;5025527;28;20476;-70
2022/11/28 04:17:18;;;;;;;18.40;13.67;;;3.70;89.80;;;3.36;80.21;97798.75;5032165;28;20445;-68
2022/11/28 04:19:51;;;;;;;21.83;13.40;;;3.70;89.30;;;3.53;80.21;97810.22;5018146;28;21890;-69
2022/11/28 04:22:24;;;;;;;18.63;13.67;;;3.80;88.80;;;3.44;80.35;97813.91;5020532;28;20458;-67
2022/11/28 04:24:56;;;;;;;22.93;14.50;;;3.70;88.80;;;3.62;80.48;97812.81;5027398;28;20541;-68
2022/11/28 04:27:28;;;;;;;19.03;13.37;;;3.70;89.90;;;3.79;79.48;97830.44;5029944;28;20458;-68
2022/11/28 04:30:00;;;;;;;19.77;13.80;;;3.80;89.90;;;3.64;79.42;97832.19;5027392;28;20457;-69
2022/11/28 04:32:29;;;;;;;19.97;14.90;;;3.80;89.20;;;3.75;78.96;97823.75;5037192;28;20461;-69
2022/11/28 04:35:01;;;;;;;19.03;13.67;;;3.90;89.00;;;3.89;78.88;97813.31;5020327;28;20493;-70
2022/11/28 04:37:32;;;;;;;20.60;14.40;;;3.90;88.60;;;3.59;78.91;97786.47;5027300;28;20449;-70
2022/11/28 04:40:01;;;;;;;24.50;14.33;;;3.90;88.00;;;3.61;79.18;97795.13;5018027;28;20478;-70
2022/11/28 04:42:36;;;;;;;22.33;14.53;;;3.90;88.00;;;3.65;79.51;97812.50;5022492;28;20455;-70
2022/11/28 04:45:09;;;;;;;26.40;17.43;;;3.80;88.60;;;3.71;79.39;97816.28;5009172;28;20651;-69
2022/11/28 04:47:36;;;;;;;24.00;15.47;;;3.90;88.70;;;3.76;79.24;97821.94;5020151;28;20461;-71
2022/11/28 04:50:05;;;;;;;21.03;14.27;;;3.90;88.50;;;3.28;79.28;97756.09;5009125;28;20514;-69
2022/11/28 04:52:40;;;;;;;24.30;16.40;;;3.90;88.40;;;3.81;79.03;97854.31;5028650;28;20476;-68
2022/11/28 04:55:15;;;;;;;23.23;15.93;;;3.90;88.70;;;3.73;79.65;97831.13;5028262;28;20488;-69
2022/11/28 04:57:46;;;;;;;24.23;15.67;;;3.90;88.90;;;3.46;80.64;97840.47;5030292;28;20462;-69
2022/11/28 05:00:16;;;;;;;25.60;17.00;;;3.90;88.90;;;3.55;80.42;97839.41;5029145;28;20473;-69
2022/11/28 05:02:46;;;;;;;27.47;17.07;;;3.90;89.90;;;3.59;80.79;97830.06;5020750;28;20470;-70
2022/11/28 05:05:18;;;;;;;26.20;18.40;;;3.80;90.00;;;3.45;81.31;97833.47;5022379;28;20461;-70
2022/11/28 05:07:46;;;;;;;24.43;15.97;;;3.80;90.20;;;3.50;81.16;97828.41;5029631;28;20456;-69
2022/11/28 05:10:16;;;;;;;23.77;16.00;;;3.80;90.50;;;3.50;81.42;97825.75;5029720;28;20438;-69
2022/11/28 05:12:44;;;;;;;26.13;18.03;;;3.80;90.60;;;3.62;81.08;97835.03;5027809;28;20465;-69
2022/11/28 05:15:11;;;;;;;22.00;16.27;;;3.70;90.80;;;3.48;80.86;97811.75;5022402;28;20462;-71
2022/11/28 05:17:38;;;;;;;26.80;17.90;;;3.70;90.90;;;3.22;82.55;97796.81;5018814;28;20537;-69
2022/11/28 05:20:07;;;;;;;30.83;17.90;;;3.70;91.20;;;3.29;82.64;97792.47;5018533;28;20476;-68
2022/11/28 05:22:35;;;;;;;24.97;18.67;;;3.60;91.40;;;3.36;82.79;97798.75;5019986;28;20460;-69
2022/11/28 05:25:03;;;;;;;26.73;19.00;;;3.70;91.60;;;3.10;84.22;97773.19;5018882;28;20954;-69
2022/11/28 05:27:31;;;;;;;29.83;18.13;;;3.60;91.90;;;3.26;83.24;97768.75;5023948;28;20862;-70
2022/11/28 05:29:58;;;;;;;25.80;17.40;;;3.60;92.10;;;3.29;83.14;97752.41;5023517;28;20457;-70
2022/11/28 05:32:25;;;;;;;26.23;17.43;;;3.60;92.10;;;3.16;82.91;97754.81;5018259;28;20473;-70
2022/11/28 05:34:52;;;;;;;30.33;18.90;;;3.60;91.90;;;3.32;83.04;97749.38;5013648;28;20461;-71
2022/11/28 05:37:19;;;;;;;29.83;19.50;;;3.60;92.10;;;3.10;83.54;97756.34;5034062;28;20510;-69
2022/11/28 05:39:47;;;;;;;25.33;16.73;;;3.60;91.70;;;3.22;83.55;97751.44;5015396;28;20480;-67
2022/11/28 05:42:15;;;;;;;28.37;16.67;;;3.60;91.80;;;3.36;82.65;97756.03;5016794;28;20745;-69
2022/11/28 05:44:42;;;;;;;25.23;17.80;;;3.70;91.30;;;2.95;82.45;97676.16;5021201;28;20462;-67
2022/11/28 05:47:10;;;;;;;33.00;18.87;;;3.70;91.10;;;3.30;82.01;97735.38;5022188;28;20465;-67
2022/11/28 05:49:37;;;;;;;24.40;16.13;;;3.70;90.60;;;3.34;82.29;97736.69;5023734;28;20468;-68
2022/11/28 05:52:04;;;;;;;26.70;18.07;;;3.80;90.60;;;3.46;81.35;97733.63;5026704;28;20472;-68
2022/11/28 05:54:34;;;;;;;27.30;17.00;;;3.80;90.40;;;3.37;82.13;97704.28;5019335;28;20480;-70
2022/11/28 05:57:02;;;;;;;21.97;16.00;;;3.80;90.50;;;3.38;83.03;97699.78;5018747;28;20466;-70
2022/11/28 05:59:31;;;;;;;26.53;16.33;;;3.80;91.00;;;3.38;82.11;97695.25;5025423;28;20583;-70
2022/11/28 06:01:58;;;;;;;26.30;16.33;;;3.70;91.00;;;3.33;82.45;97686.09;5023937;28;20567;-70
2022/11/28 06:04:25;;;;;;;26.60;16.80;;;3.70;90.80;;;3.22;83.08;97663.31;5022970;28;20453;-68
2022/11/28 06:06:53;;;;;;;25.77;16.30;;;3.70;90.70;;;3.43;82.28;97675.22;5022304;28;20452;-69
2022/11/28 06:09:20;;;;;;;24.07;15.10;;;3.70;90.60;;;3.53;81.34;97681.13;5015798;28;20473;-71
2022/11/28 06:11:47;;;;;;;24.43;16.90;;;3.80;90.20;;;3.68;80.79;97700.72;5028465;28;20495;-71
2022/11/28 06:14:14;;;;;;;23.90;14.40;;;3.90;90.10;;;3.58;80.56;97755.41;5041381;28;20603;-70
2022/11/28 06:16:43;;;;;;;21.50;14.43;;;3.90;88.90;;;3.63;80.37;97766.38;5021309;28;20972;-71
2022/11/28 06:19:12;;;;;;;23.53;17.10;;;3.90;88.70;;;3.37;80.25;97704.28;5017110;28;20473;-71
2022/11/28 06:21:39;;;;;;;22.70;15.70;;;3.90;88.90;;;3.63;80.37;97764.56;5023121;28;20479;-72
2022/11/28 06:24:07;;;;;;;21.63;16.17;;;3.90;89.30;;;3.77;79.83;97762.13;5039427;28;20464;-72
2022/11/28 06:26:34;;;;;;;28.37;16.93;;;3.90;89.10;;;3.63;80.17;97753.88;5024952;28;20484;-72
2022/11/28 06:29:01;;;;;;;26.10;17.00;;;3.90;89.60;;;3.99;79.50;97748.94;5027517;28;20469;-71
2022/11/28 06:31:30;;;;;;;31.07;17.47;;;3.90;90.00;;;3.88;79.61;97753.72;5021717;28;20461;-71
2022/11/28 06:33:59;;;;;;;30.83;17.63;;;4.00;89.40;;;3.68;79.75;97753.34;5037092;28;20447;-71
2022/11/28 06:36:27;;;;;;;26.57;18.03;;;4.00;88.30;;;4.00;79.42;97777.31;5036657;28;21157;-70
2022/11/28 06:38:55;;;;;;;24.40;15.90;;;4.10;89.20;;;4.24;79.39;97774.44;5023967;28;20468;-70
2022/11/28 06:41:22;;;;;;;24.73;17.00;;;4.30;90.40;;;3.76;79.82;97749.78;5036727;28;20461;-71
2022/11/28 06:43:50;;;;;;;27.00;16.93;;;4.10;87.80;;;4.12;80.92;97757.16;5027445;28;20553;-71
2022/11/28 06:46:21;;;;;;;30.17;17.67;;;4.20;91.00;;;4.07;79.38;97775.59;5022541;28;20464;-70
2022/11/28 06:48:50;;;;;;;23.30;14.53;;;4.20;88.00;;;3.85;78.96;97770.06;5043909;28;20465;-72
2022/11/28 06:51:20;;;;;;;23.90;17.20;;;4.10;87.90;;;3.95;79.08;97780.56;5035258;28;20939;-69
2022/11/28 06:53:48;;;;;;;25.93;16.17;;;4.10;88.10;;;3.71;79.07;97784.19;5025018;28;21017;-76
2022/11/28 06:56:17;;;;;;;25.17;17.33;;;4.10;87.30;;;3.76;80.04;97781.84;5024316;28;20936;-73
2022/11/28 06:58:46;;;;;;;27.60;17.30;;;4.00;88.40;;;3.30;80.08;97719.38;5024642;28;20468;-74
2022/11/28 07:01:18;;;;;;;24.67;15.93;;;4.00;88.60;;;3.69;80.10;97747.81;5020276;28;20533;-73
2022/11/28 07:03:47;;;;;;;24.80;17.43;;;3.90;89.20;;;3.91;81.17;97774.72;5023904;28;20454;-71
2022/11/28 07:06:17;;;;;;;25.47;17.50;;;3.90;90.60;;;4.45;83.73;97770.25;5026309;28;20930;-73
2022/11/28 07:08:46;;;;;;;28.47;17.20;;;4.30;96.20;;;4.17;78.47;97775.34;5027070;28;20458;-74
2022/11/28 07:11:17;;;;;;;25.27;17.00;;;4.30;88.50;;;4.07;78.87;97772.94;5019454;28;20952;-72
2022/11/28 07:13:45;;;;;;;25.47;16.50;;;4.20;87.70;;;3.64;79.99;97747.53;5022199;28;20450;-72
2022/11/28 07:16:17;;;;;;;24.37;17.23;;;4.10;88.50;;;3.64;80.57;97726.16;5039337;28;20449;-72
2022/11/28 07:18:45;;;;;;;24.50;17.03;;;4.00;89.50;;;3.72;80.35;97743.94;5027023;28;20457;-73
2022/11/28 07:21:14;;;;;;;23.63;17.77;;;3.90;89.80;;;3.75;80.54;97748.13;5026978;28;20464;-73
2022/11/28 07:23:42;;;;;;;24.10;16.33;;;4.00;89.40;;;3.78;80.50;97753.91;5028787;28;20526;-73
2022/11/28 07:26:13;;;;;;;24.50;17.50;;;4.00;89.80;;;3.76;80.70;97749.78;5028157;28;20469;-74
2022/11/28 07:28:41;;;;;;;24.03;16.10;;;4.00;89.70;;;3.83;79.70;97753.38;5026830;28;21020;-73
2022/11/28 07:31:11;;;;;;;24.37;15.93;;;4.00;89.60;;;3.92;79.41;97765.69;5025735;28;20809;-73
2022/11/28 07:33:40;;;;;;;24.63;17.43;;;4.00;89.60;;;3.86;79.23;97754.88;5032676;28;20468;-72
2022/11/28 07:36:12;;;;;;;21.27;15.37;;;4.10;88.50;;;3.94;79.36;97769.00;5022282;28;20541;-72
2022/11/28 07:38:40;;;;;;;23.63;16.30;;;4.10;89.00;;;3.62;80.81;97754.03;5037190;28;20515;-71
2022/11/28 07:41:12;;;;;;;24.57;17.23;;;4.00;88.90;;;3.67;80.69;97762.38;5014846;28;20512;-73
2022/11/28 07:43:41;;;;;;;20.13;15.43;;;4.00;89.50;;;4.02;79.48;97767.28;5038614;28;20755;-71
2022/11/28 07:46:13;;;;;;;21.83;15.27;;;4.00;89.80;;;3.90;79.42;97770.41;5040067;28;20453;-74
2022/11/28 07:48:41;;;;;;;23.70;14.90;;;4.10;88.70;;;4.10;79.04;97783.25;5025445;28;21159;-73
2022/11/28 07:51:11;;;;;;;22.87;16.30;;;4.20;88.30;;;4.18;78.94;97796.59;5025708;28;20464;-72
2022/11/28 07:53:39;;;;;;;26.67;16.80;;;4.20;88.30;;;3.94;79.44;97789.56;5039744;28;20798;-72
2022/11/28 07:56:09;;;;;;;21.30;15.87;;;4.20;87.80;;;4.25;77.65;97776.13;5023013;28;20544;-74
2022/11/28 07:58:38;;;;;;;23.47;16.23;;;4.30;87.50;;;3.65;79.02;97732.34;5023214;28;20471;-73
2022/11/28 08:01:10;;;;;;;19.23;14.77;;;4.20;87.20;;;4.18;78.03;97780.53;5019386;28;20534;-72
2022/11/28 08:03:37;;;;;;;20.03;15.03;;;4.30;87.60;;;4.29;77.44;97770.41;5018688;28;20465;-74
2022/11/28 08:06:06;;;;;;;23.10;16.17;;;4.40;86.40;;;4.04;78.39;97759.94;5021329;28;21288;-73
2022/11/28 08:08:34;;;;;;;22.27;15.50;;;4.30;86.30;;;4.18;77.08;97761.81;5019827;28;20813;-70
2022/11/28 08:11:04;;;;;;;23.73;15.00;;;4.40;85.80;;;4.42;77.04;97764.44;5024507;28;20466;-72
2022/11/28 08:13:32;;;;;;;24.73;15.33;;;4.50;85.60;;;4.35;76.17;97762.47;5043500;28;20466;-72
2022/11/28 08:16:05;;;;;;;19.77;14.77;;;4.50;84.70;;;4.63;76.21;97756.53;5048695;28;20493;-73
2022/11/28 08:18:32;;;;;;;22.70;15.90;;;4.60;85.00;;;4.75;75.28;97766.78;5038547;28;20537;-72
2022/11/28 08:21:05;;;;;;;21.53;15.40;;;4.70;84.10;;;4.49;75.90;97770.72;5042782;28;20499;-74
2022/11/28 08:23:33;;;;;;;19.30;13.40;;;4.60;84.10;;;4.60;75.41;97764.06;5031322;28;20458;-73
2022/11/28 08:26:01;;;;;;;23.33;13.90;;;4.70;83.70;;;4.35;76.21;97769.69;5024454;28;20528;-72
2022/11/28 08:28:29;;;;;;;21.87;15.33;;;4.70;83.30;;;4.10;76.94;97777.91;5026162;28;20527;-72
2022/11/28 08:30:56;;;;;;;22.27;15.10;;;4.40;84.00;;;4.74;75.72;97773.97;5026370;28;20535;-73
2022/11/28 08:33:25;;;;;;;18.03;13.77;;;4.60;84.50;;;4.38;75.27;97775.47;5038051;28;20894;-73
2022/11/28 08:35:52;;;;;;;22.60;15.30;;;4.70;83.50;;;4.51;75.19;97763.34;5024709;28;20461;-73
2022/11/28 08:38:20;;;;;;;19.43;13.90;;;4.70;83.40;;;4.27;76.40;97761.72;5015246;28;20456;-73
2022/11/28 08:40:47;;;;;;;24.00;14.37;;;4.60;83.50;;;4.22;76.05;97760.44;5022582;28;20510;-73
2022/11/28 08:43:14;;;;;;;24.20;13.83;;;4.60;83.50;;;4.39;76.29;97757.59;5026794;28;20449;-72
2022/11/28 08:45:41;;;;;;;22.37;15.50;;;4.50;83.80;;;4.65;74.45;97754.50;5023199;28;20460;-71
2022/11/28 08:48:09;;;;;;;22.10;15.50;;;4.70;83.50;;;4.29;76.37;97759.69;5023554;28;20451;-74
2022/11/28 08:50:39;;;;;;;21.87;15.33;;;4.60;83.40;;;4.20;76.50;97742.91;5027432;28;20460;-80
2022/11/28 08:53:06;;;;;;;20.63;15.33;;;4.60;83.90;;;4.34;76.89;97762.69;5026343;28;20458;-74
2022/11/28 08:55:33;;;;;;;19.17;13.93;;;4.60;83.60;;;4.70;75.77;97761.97;5024539;28;20472;-69
2022/11/28 08:58:00;;;;;;;21.47;14.60;;;4.80;83.50;;;4.98;74.58;97758.66;5026501;28;20466;-70
2022/11/28 09:00:28;;;;;;;21.33;14.40;;;4.90;83.40;;;4.92;74.03;97764.72;5039478;28;20880;-69
2022/11/28 09:02:55;;;;;;;19.80;14.90;;;5.00;83.10;;;4.89;74.42;97767.78;5017514;28;20849;-75
2022/11/28 09:05:22;;;;;;;21.97;15.40;;;5.00;82.90;;;4.62;75.11;97770.06;5036751;28;20468;-74
2022/11/28 09:07:51;;;;;;;19.50;15.47;;;4.90;82.70;;;4.78;74.33;97763.72;5023803;28;20461;-67
2022/11/28 09:10:18;;;;;;;25.87;16.27;;;5.00;82.80;;;4.75;74.99;97764.91;5021270;28;20479;-68
2022/11/28 09:12:45;;;;;;;32.03;16.50;;;4.90;82.90;;;4.86;74.94;97754.78;5021755;28;20465;-67
2022/11/28 09:15:12;;;;;;;22.10;15.27;;;5.00;82.60;;;4.79;75.07;97766.22;5020075;28;20458;-67
2022/11/28 09:17:39;;;;;;;18.90;13.63;;;5.00;82.90;;;4.74;73.73;97709.72;5023857;28;20469;-72
2022/11/28 09:20:08;;;;;;;20.23;14.43;;;5.10;82.40;;;5.17;73.44;97748.38;5019712;28;20473;-73
2022/11/28 09:22:36;;;;;;;20.73;12.93;;;5.30;81.90;;;4.71;73.06;97690.56;5021819;28;20454;-70
2022/11/28 09:25:05;;;;;;;17.30;14.30;;;5.20;82.00;;;5.17;73.25;97759.09;5024089;28;20469;-78
2022/11/28 09:27:33;;;;;;;21.17;14.20;;;5.30;81.60;;;5.48;71.70;97755.31;5026995;28;20509;-67
2022/11/28 09:30:01;;;;;;;19.93;14.83;;;5.50;81.60;;;5.66;71.63;97745.00;5025602;28;20465;-82
2022/11/28 09:32:28;;;;;;;20.33;16.50;;;5.60;81.30;;;6.00;69.76;97752.56;5039526;28;20448;-70
2022/11/28 09:34:55;;;;;;;22.37;13.90;;;5.80;80.80;;;5.67;70.85;97749.34;5019857;28;20453;-70
2022/11/28 09:37:22;;;;;;;22.07;14.80;;;5.70;80.50;;;5.10;72.84;97741.09;5021174;28;20467;-69
2022/11/28 09:39:50;;;;;;;20.30;13.97;;;5.50;80.50;;;5.43;71.93;97733.63;5017012;28;20962;-70
2022/11/28 09:42:29;;;;;;;22.77;15.27;;;5.50;81.00;;;5.62;71.12;97741.03;5020287;28;21012;-70
2022/11/28 09:45:00;;;;;;;19.17;14.50;;;5.60;80.90;;;5.57;71.58;97739.94;5022742;28;20988;-71
2022/11/28 09:47:31;;;;;;;22.27;14.03;;;5.60;80.40;;;5.76;71.25;97741.19;5021323;28;20461;-71
2022/11/28 09:50:05;;;;;;;22.60;16.13;;;5.70;80.50;;;5.94;70.60;97741.56;5029821;28;20459;-70
2022/11/28 09:52:39;;;;;;;25.03;16.03;;;5.80;80.20;;;5.42;71.64;97740.00;5026511;28;20456;-69
2022/11/28 09:55:17;;;;;;;20.17;14.90;;;5.70;80.10;;;5.60;71.38;97735.03;5024146;28;20507;-70
2022/11/28 09:57:48;;;;;;;16.13;13.37;;;5.70;80.30;;;6.16;69.48;97744.25;5029161;28;20450;-70
2022/11/28 10:00:20;;;;;;;19.10;14.30;;;5.90;80.10;;;6.15;69.17;97753.34;5025831;28;20472;-70
2022/11/28 10:03:05;;;;;;;19.07;13.67;;;6.00;79.70;;;6.32;68.36;97737.78;5024334;28;20533;-70
2022/11/28 10:05:42;;;;;;;18.00;13.30;;;6.20;79.40;;;5.93;68.94;97723.81;5039508;28;21107;-69
2022/11/28 10:08:23;;;;;;;16.27;13.87;;;6.20;78.90;;;5.90;68.14;97670.56;5022400;28;20457;-69
2022/11/28 10:11:02;;;;;;;18.40;14.17;;;6.20;79.00;;;6.31;68.52;97737.97;5039892;28;20604;-70
2022/11/28 10:13:43;;;;;;;17.63;13.63;;;6.20;79.00;;;6.30;68.49;97739.00;5027234;28;20469;-71
2022/11/28 10:16:17;;;;;;;19.30;13.30;;;6.30;78.90;;;6.05;68.93;97750.16;5020955;28;20450;-69
2022/11/28 10:18:51;;;;;;;19.10;13.63;;;6.20;78.70;;;5.88;69.74;97753.06;5026229;28;20450;-72
2022/11/28 10:21:29;;;;;;;19.60;14.13;;;6.00;79.10;;;5.73;70.27;97745.06;5028684;28;20939;-70
2022/11/28 10:24:01;;;;;;;16.47;13.30;;;6.00;79.00;;;5.66;70.30;97746.88;5027593;28;20477;-72
2022/11/28 10:26:35;;;;;;;20.07;14.10;;;6.00;79.00;;;5.50;70.76;97738.03;5025032;28;20466;-74
2022/11/28 10:29:17;;;;;;;18.30;14.20;;;5.80;79.20;;;5.54;71.33;97746.53;5029051;28;20512;-71
2022/11/28 10:31:47;;;;;;;18.70;14.20;;;5.70;79.50;;;5.56;70.97;97739.13;5021387;28;20462;-69
2022/11/28 10:34:19;;;;;;;19.87;13.10;;;5.70;79.60;;;5.66;70.34;97744.19;5021164;28;20813;-69
2022/11/28 10:36:55;;;;;;;21.60;15.20;;;5.80;79.40;;;5.57;70.74;97743.47;5041626;28;21166;-68